»·PEaware :: N1399 KSAN-KPSP

N1399 :: KSAN-KPSP

FLIGHT INFORMATION

Flight Status: Arrived
Operator: Privately registered:
United States
More flights under this callsign
Pilot: David C. (16084)
Aircraft: CESSNA 310
(C310)
More flights by this aircraft type
Origin: KSAN San Diego Intl-Lindbergh
United States
Destination: KPSP Palm Springs Intl
United States
More flights between these airports :: More routes between these airports
Route: BRDR7 JLI V208 TRM
File this flight plan on PilotEdge
Remarks:
Altitude:
(Current/Filed)
9,000ft
Speed:
(Current/Filed)
264kts
Departed: 11-Feb-20 12:37 PM
Arrived: 11-Feb-20 01:23 PM
Distance/Time
Traveled:
74nm/0:46
Distance/Time
To Go:
Arrived

Flight Plot

Page will automatically refresh every two minutes.


Map Options




Map Legend


Flown Route
Filed Route
Departure Airport
Arrival Airport
Navaid (VOR, NDB)
Fix

Horizontal Profiles

Position Reports

Time Latitude Longitude Heading Altitude Ground
Speed
11-Feb-20 12:18 32.734102 -117.178750 142 18ft 0kts
11-Feb-20 12:19 32.734102 -117.178750 142 18ft 0kts
11-Feb-20 12:20 32.734102 -117.178750 142 18ft 0kts
11-Feb-20 12:21 32.734102 -117.178750 142 18ft 0kts
11-Feb-20 12:22 32.734102 -117.178750 142 18ft 0kts
11-Feb-20 12:23 32.734102 -117.178750 142 18ft 0kts
11-Feb-20 12:24 32.734102 -117.178750 142 18ft 0kts
11-Feb-20 12:25 32.734102 -117.178750 142 18ft 0kts
11-Feb-20 12:26 32.734102 -117.178750 142 18ft 0kts
11-Feb-20 12:27 32.734102 -117.178750 142 18ft 0kts
11-Feb-20 12:28 32.734102 -117.178750 142 18ft 0kts
11-Feb-20 12:29 32.734102 -117.178750 142 18ft 0kts
11-Feb-20 12:30 32.734102 -117.178750 142 18ft 0kts
11-Feb-20 12:31 32.733698 -117.179053 238 18ft 7kts
11-Feb-20 12:32 32.733095 -117.179532 187 17ft 8kts
11-Feb-20 12:33 32.731610 -117.176947 109 21ft 12kts
11-Feb-20 12:34 32.730968 -117.175579 151 23ft 0kts
11-Feb-20 12:35 32.730968 -117.175579 151 23ft 0kts
11-Feb-20 12:36 32.730661 -117.177701 284 18ft 59kts
11-Feb-20 12:37 32.741380 -117.209252 288 1196ft 128kts
11-Feb-20 12:38 32.755519 -117.252744 288 2261ft 146kts
11-Feb-20 12:39 32.765916 -117.294469 242 3731ft 125kts
11-Feb-20 12:40 32.737032 -117.276734 134 4948ft 155kts
11-Feb-20 12:41 32.710006 -117.239884 134 6169ft 149kts
11-Feb-20 12:42 32.680946 -117.203133 133 7171ft 154kts
11-Feb-20 12:43 32.675665 -117.161683 36 8094ft 123kts
11-Feb-20 12:44 32.698742 -117.132783 31 8988ft 119kts
11-Feb-20 12:45 32.726784 -117.098922 32 8983ft 158kts
11-Feb-20 12:46 32.759208 -117.058344 35 8972ft 174kts
11-Feb-20 12:47 32.794106 -117.015392 35 8966ft 182kts
11-Feb-20 12:48 32.829777 -116.971398 35 8964ft 185kts
11-Feb-20 12:49 32.865348 -116.927477 35 8964ft 182kts
11-Feb-20 12:50 32.899110 -116.885745 40 8962ft 164kts
11-Feb-20 12:51 32.930145 -116.847334 39 8963ft 159kts
11-Feb-20 12:52 32.961015 -116.809083 38 8964ft 160kts
11-Feb-20 12:53 32.991909 -116.770762 39 8964ft 160kts
11-Feb-20 12:55 33.022551 -116.732718 39 8965ft 159kts
11-Feb-20 12:56 33.053084 -116.694765 40 8964ft 158kts
11-Feb-20 12:57 33.083366 -116.657084 41 8965ft 157kts
11-Feb-20 12:58 33.113636 -116.619385 42 8944ft 158kts
11-Feb-20 12:59 33.144993 -116.582492 33 8934ft 156kts
11-Feb-20 13:00 33.180352 -116.551368 33 8937ft 157kts
11-Feb-20 13:01 33.215782 -116.520576 32 8940ft 157kts
11-Feb-20 13:02 33.251102 -116.489878 31 8943ft 157kts
11-Feb-20 13:03 33.286636 -116.458959 31 8947ft 157kts
11-Feb-20 13:04 33.322170 -116.428010 31 8952ft 157kts
11-Feb-20 13:05 33.357717 -116.397027 30 8955ft 158kts
11-Feb-20 13:06 33.393268 -116.365987 30 8955ft 158kts
11-Feb-20 13:07 33.429027 -116.334740 31 8955ft 158kts
11-Feb-20 13:08 33.464759 -116.303484 31 8954ft 158kts
11-Feb-20 13:09 33.500646 -116.272062 31 8955ft 158kts
11-Feb-20 13:10 33.536295 -116.240813 31 8955ft 158kts
11-Feb-20 13:10 33.565932 -116.214813 31 8981ft 157kts
11-Feb-20 13:12 33.607273 -116.178499 31 8979ft 155kts
11-Feb-20 13:13 33.637710 -116.196090 300 8190ft 167kts
11-Feb-20 13:13 33.649048 -116.234058 301 6551ft 151kts
11-Feb-20 13:15 33.670916 -116.290965 302 4154ft 171kts
11-Feb-20 13:16 33.690231 -116.335829 305 3983ft 151kts
11-Feb-20 13:16 33.706933 -116.373672 304 3982ft 155kts
11-Feb-20 13:17 33.728234 -116.414944 319 4021ft 126kts
11-Feb-20 13:19 33.758249 -116.445420 326 3350ft 121kts
11-Feb-20 13:19 33.778093 -116.462901 331 2309ft 114kts
11-Feb-20 13:20 33.803764 -116.484868 327 1088ft 98kts
11-Feb-20 13:21 33.822898 -116.501594 326 436ft 72kts
11-Feb-20 13:22 33.827502 -116.507183 185 429ft 8kts
11-Feb-20 13:23 33.827176 -116.507213 184 429ft 3kts
11-Feb-20 13:24 33.825314 -116.508357 274 429ft 13kts
11-Feb-20 13:25 33.826193 -116.509581 0 429ft 0kts
11-Feb-20 13:26 33.826193 -116.509581 0 429ft 0kts

Navigation Log

Ident Type
Flight plan parsing failed, navigation log unavailable